Time;durP1;ratioP1;P1;durP2;ratioP2;P2;SDS_P1;SDS_P2;PMS_P1;PMS_P2;Temp;Humidity;BMP_temperature;BMP_pressure;BME280_temperature;BME280_humidity;BME280_pressure;Samples;Min_cycle;Max_cycle;Signal;HPM_P1;HPM_P2
2021/04/04 00:02:26;;;;;;;39.33;22.20;;;179.60;2252.80;;;;;;4996796;28;20037;-79
2021/04/04 00:04:52;;;;;;;29.70;19.05;;;179.60;2252.80;;;;;;4996730;28;20042;-81
2021/04/04 00:07:18;;;;;;;30.05;18.23;;;179.70;2252.80;;;;;;4996366;28;20026;-81
2021/04/04 00:09:44;;;;;;;27.63;18.58;;;179.60;2252.80;;;;;;4996075;28;20041;-81
2021/04/04 00:12:10;;;;;;;29.98;18.88;;;179.60;2252.80;;;;;;4996355;28;20036;-78
2021/04/04 00:14:37;;;;;;;35.35;21.17;;;179.70;2252.80;;;;;;4996112;28;20113;-82
2021/04/04 00:17:04;;;;;;;37.08;20.80;;;179.70;2252.80;;;;;;4996121;28;20050;-82
2021/04/04 00:19:30;;;;;;;23.52;16.48;;;179.70;2252.80;;;;;;4996286;28;20061;-77
2021/04/04 00:21:56;;;;;;;24.50;16.10;;;179.70;2252.80;;;;;;4994888;28;20067;-83
2021/04/04 00:24:22;;;;;;;24.15;16.35;;;179.70;2252.80;;;;;;4996020;28;20025;-82
2021/04/04 00:26:48;;;;;;;23.85;16.92;;;179.60;2252.80;;;;;;4995821;28;20381;-82
2021/04/04 00:29:14;;;;;;;23.83;15.07;;;179.70;2252.80;;;;;;4996013;28;20022;-81
2021/04/04 00:31:39;;;;;;;26.05;16.20;;;179.70;2252.80;;;;;;4996546;28;20030;-81
2021/04/04 00:34:06;;;;;;;20.35;14.20;;;179.70;2252.80;;;;;;4996166;28;20112;-81
2021/04/04 00:36:32;;;;;;;20.92;15.13;;;179.60;2252.80;;;;;;4996447;28;20026;-81
2021/04/04 00:38:58;;;;;;;22.98;15.90;;;179.40;2252.80;;;;;;4997192;28;20026;-84
2021/04/04 00:41:24;;;;;;;21.58;15.60;;;179.40;2252.80;;;;;;5018086;28;20086;-78
2021/04/04 00:43:50;;;;;;;19.38;13.95;;;179.50;2252.80;;;;;;5019406;28;20018;-80
2021/04/04 00:46:16;;;;;;;22.73;16.58;;;179.50;2252.80;;;;;;5020680;28;20030;-83
2021/04/04 00:48:42;;;;;;;21.23;14.55;;;179.50;2252.80;;;;;;5020321;28;20014;-81
2021/04/04 00:51:08;;;;;;;17.70;12.23;;;179.50;2252.80;;;;;;5021486;28;20026;-81
2021/04/04 00:53:34;;;;;;;14.63;9.98;;;179.50;2252.80;;;;;;5021074;28;20042;-81
2021/04/04 00:56:01;;;;;;;14.38;9.50;;;179.60;2252.80;;;;;;5021518;28;20042;-81
2021/04/04 00:58:27;;;;;;;13.60;9.38;;;179.60;2252.80;;;;;;5006793;28;20034;-81
2021/04/04 01:00:52;;;;;;;14.35;10.35;;;179.40;2252.80;;;;;;5012969;28;20025;-81
2021/04/04 01:03:18;;;;;;;12.15;8.23;;;179.50;2252.80;;;;;;4995827;28;20052;-78
2021/04/04 01:05:48;;;;;;;11.88;7.00;;;179.60;2252.80;;;;;;4979954;28;20033;-81
2021/04/04 01:08:14;;;;;;;8.57;6.53;;;179.60;2252.80;;;;;;4996059;28;20033;-85
2021/04/04 01:10:46;;;;;;;8.98;6.93;;;179.30;2252.80;;;;;;4995635;28;20025;-83
2021/04/04 01:13:35;;;;;;;10.30;7.25;;;179.40;2252.80;;;;;;4996267;28;20030;-81
2021/04/04 01:16:08;;;;;;;9.80;7.00;;;179.50;2252.80;;;;;;4995990;28;20116;-82
2021/04/04 01:19:09;;;;;;;9.00;6.55;;;179.50;2252.80;;;;;;4996032;28;20030;-82
2021/04/04 01:22:10;;;;;;;7.90;6.30;;;179.40;2252.80;;;;;;4996009;28;20105;-84
2021/04/04 01:25:07;;;;;;;10.77;7.93;;;179.50;2252.80;;;;;;5011804;28;20026;-80
2021/04/04 01:28:08;;;;;;;11.25;7.72;;;179.50;2252.80;;;;;;4983787;28;20504;-82
2021/04/04 01:30:39;;;;;;;10.15;7.65;;;179.50;2252.80;;;;;;4978988;28;20470;-83
2021/04/04 01:33:09;;;;;;;12.23;7.80;;;154.50;2252.80;;;;;;4996678;28;20377;-82
2021/04/04 01:35:37;;;;;;;11.30;8.52;;;179.20;2252.80;;;;;;4998932;28;20022;-83
2021/04/04 01:38:13;;;;;;;11.38;8.70;;;154.50;2252.80;;;;;;5016543;28;20482;-83
2021/04/04 01:40:43;;;;;;;12.88;9.25;;;179.20;2252.80;;;;;;4999199;28;20116;-83
2021/04/04 01:43:10;;;;;;;12.80;9.65;;;179.30;2252.80;;;;;;4999184;28;20485;-84
2021/04/04 01:45:41;;;;;;;14.38;9.68;;;179.20;2252.80;;;;;;4998737;28;20038;-80
2021/04/04 01:48:16;;;;;;;12.68;9.07;;;179.30;2252.80;;;;;;4983331;28;20111;-82
2021/04/04 01:50:43;;;;;;;11.75;8.50;;;179.30;2252.80;;;;;;4998176;28;20402;-78
2021/04/04 01:53:12;;;;;;;14.68;10.60;;;179.40;2252.80;;;;;;4997610;28;20040;-81
2021/04/04 01:55:40;;;;;;;13.45;9.27;;;179.30;2252.80;;;;;;4998392;28;20460;-82
2021/04/04 01:58:13;;;;;;;14.25;10.48;;;179.30;2252.80;;;;;;5015084;28;20080;-83
2021/04/04 02:00:40;;;;;;;15.63;10.63;;;179.30;2252.80;;;;;;4998670;28;20076;-79
2021/04/04 02:03:08;;;;;;;12.02;9.18;;;179.30;2252.80;;;;;;4998450;28;20264;-78
2021/04/04 02:05:36;;;;;;;11.38;8.05;;;179.40;2252.80;;;;;;4998467;28;20430;-82
2021/04/04 02:08:07;;;;;;;11.55;8.48;;;179.50;2252.80;;;;;;5016177;28;20030;-86
2021/04/04 02:10:37;;;;;;;14.25;9.23;;;179.50;2252.80;;;;;;4983050;28;20084;-83
2021/04/04 02:13:07;;;;;;;13.00;9.85;;;179.50;2252.80;;;;;;4998230;28;20026;-84
2021/04/04 02:15:34;;;;;;;11.40;8.63;;;179.50;2252.80;;;;;;4982402;28;20050;-81
2021/04/04 02:18:01;;;;;;;15.43;9.13;;;179.50;2252.80;;;;;;4982175;28;20056;-81
2021/04/04 02:20:30;;;;;;;13.23;9.07;;;179.50;2252.80;;;;;;4998173;28;20033;-79
2021/04/04 02:23:00;;;;;;;12.93;9.38;;;179.40;2252.80;;;;;;4997404;28;20026;-80
2021/04/04 02:25:27;;;;;;;14.27;11.07;;;179.50;2252.80;;;;;;4994927;28;20030;-83
2021/04/04 02:27:53;;;;;;;12.25;9.30;;;179.40;2252.80;;;;;;4977842;28;20040;-81
2021/04/04 02:30:19;;;;;;;13.88;9.55;;;179.40;2252.80;;;;;;4978492;28;20382;-83
2021/04/04 02:33:01;;;;;;;14.15;10.18;;;179.50;2252.80;;;;;;4978331;28;20061;-81
2021/04/04 02:35:37;;;;;;;10.40;8.50;;;179.50;2252.80;;;;;;4978718;28;20030;-81
2021/04/04 02:38:13;;;;;;;11.82;8.35;;;179.50;2252.80;;;;;;4978638;28;20089;-78
2021/04/04 02:40:45;;;;;;;12.55;10.02;;;179.40;2252.80;;;;;;4977994;28;20065;-84
2021/04/04 02:43:26;;;;;;;12.93;9.55;;;179.40;2252.80;;;;;;4978721;28;20027;-79
2021/04/04 02:45:58;;;;;;;10.88;8.50;;;179.30;2252.80;;;;;;4995699;28;20034;-83
2021/04/04 02:48:31;;;;;;;13.48;7.88;;;154.30;2252.80;;;;;;4978921;28;20129;-82
2021/04/04 02:51:04;;;;;;;9.23;7.22;;;154.20;2252.80;;;;;;4978314;28;20394;-82
2021/04/04 02:53:37;;;;;;;10.40;7.13;;;154.20;2252.80;;;;;;4978042;28;20034;-83
2021/04/04 02:56:04;;;;;;;12.77;7.28;;;154.50;2252.80;;;;;;4978376;28;20022;-83
2021/04/04 02:58:33;;;;;;;9.98;7.07;;;154.50;2252.80;;;;;;4977887;28;20037;-82
2021/04/04 03:01:00;;;;;;;9.75;7.40;;;154.50;2252.80;;;;;;4961934;28;20360;-82
2021/04/04 03:03:31;;;;;;;9.45;6.68;;;179.30;2252.80;;;;;;4962572;28;20042;-82
2021/04/04 03:06:02;;;;;;;9.52;6.90;;;179.30;2252.80;;;;;;4978131;28;20085;-82
2021/04/04 03:08:29;;;;;;;9.18;7.20;;;179.40;2252.80;;;;;;4978215;28;20038;-84
2021/04/04 03:10:58;;;;;;;9.77;7.47;;;179.40;2252.80;;;;;;4978507;28;20553;-82
2021/04/04 03:13:25;;;;;;;10.85;8.82;;;179.30;2252.80;;;;;;4977874;28;20078;-80
2021/04/04 03:15:59;;;;;;;11.02;8.30;;;179.30;2252.80;;;;;;4977420;28;20531;-82
2021/04/04 03:18:26;;;;;;;10.90;8.45;;;179.20;2252.80;;;;;;4975472;28;20439;-83
2021/04/04 03:20:56;;;;;;;12.25;8.82;;;154.50;2252.80;;;;;;4958414;28;20120;-84
2021/04/04 03:23:24;;;;;;;11.98;9.60;;;179.30;2252.80;;;;;;4968408;28;20030;-81
2021/04/04 03:25:53;;;;;;;13.25;10.35;;;179.30;2252.80;;;;;;4977479;28;20108;-81
2021/04/04 03:28:19;;;;;;;17.15;11.63;;;179.40;2252.80;;;;;;4976134;28;20041;-84
2021/04/04 03:30:47;;;;;;;15.68;11.27;;;179.40;2252.80;;;;;;4961240;28;20450;-83
2021/04/04 03:33:19;;;;;;;18.17;12.63;;;179.40;2252.80;;;;;;4977362;28;20118;-82
2021/04/04 03:35:50;;;;;;;16.50;11.15;;;179.30;2252.80;;;;;;4977083;28;20033;-80
2021/04/04 03:38:19;;;;;;;14.93;10.48;;;179.30;2252.80;;;;;;4977432;28;20034;-83
2021/04/04 03:40:45;;;;;;;13.63;9.25;;;179.40;2252.80;;;;;;4993550;28;20025;-83
2021/04/04 03:43:22;;;;;;;16.73;11.02;;;179.40;2252.80;;;;;;4977167;28;20470;-81
2021/04/04 03:45:52;;;;;;;15.32;10.80;;;179.40;2252.80;;;;;;4976826;28;20050;-80
2021/04/04 03:48:21;;;;;;;18.25;12.82;;;179.40;2252.80;;;;;;4977437;28;20566;-81
2021/04/04 03:50:49;;;;;;;21.27;15.45;;;179.40;2252.80;;;;;;4976915;28;20470;-81
2021/04/04 03:53:27;;;;;;;20.42;14.48;;;179.40;2252.80;;;;;;4976935;28;20475;-84
2021/04/04 03:56:03;;;;;;;18.40;13.50;;;179.40;2252.80;;;;;;5003609;28;20448;-80
2021/04/04 03:58:33;;;;;;;26.35;17.02;;;179.40;2252.80;;;;;;4976236;28;20023;-81
2021/04/04 04:01:04;;;;;;;20.60;13.63;;;179.40;2252.80;;;;;;4976645;28;20470;-80
2021/04/04 04:03:33;;;;;;;18.58;13.27;;;179.40;2252.80;;;;;;4977057;28;20027;-83
2021/04/04 04:06:00;;;;;;;16.80;12.50;;;179.30;2252.80;;;;;;4976750;28;20041;-83
2021/04/04 04:08:28;;;;;;;19.67;14.30;;;179.30;2252.80;;;;;;4977047;28;20117;-84
2021/04/04 04:10:54;;;;;;;72.05;36.28;;;154.50;2252.80;;;;;;4960818;28;20492;-84
2021/04/04 04:13:21;;;;;;;72.07;34.13;;;154.30;2252.80;;;;;;4976826;28;20037;-84
2021/04/04 04:15:51;;;;;;;27.27;16.08;;;154.40;2252.80;;;;;;4976559;28;20026;-84
2021/04/04 04:18:19;;;;;;;23.15;15.57;;;154.50;2252.80;;;;;;4995180;28;20049;-79
2021/04/04 04:20:47;;;;;;;18.33;12.93;;;154.50;2252.80;;;;;;5013704;28;20113;-83
2021/04/04 04:23:14;;;;;;;18.73;12.45;;;154.50;2252.80;;;;;;5013921;28;20030;-84
2021/04/04 04:25:41;;;;;;;17.50;12.38;;;179.20;2252.80;;;;;;4996044;28;20029;-81
2021/04/04 04:28:09;;;;;;;18.42;12.20;;;154.50;2252.80;;;;;;4996069;28;20080;-82
2021/04/04 04:30:35;;;;;;;19.77;13.15;;;154.30;2252.80;;;;;;4996251;28;20429;-79
2021/04/04 04:33:05;;;;;;;22.80;20.35;;;154.20;2252.80;;;;;;4995823;28;20112;-81
2021/04/04 04:35:33;;;;;;;21.38;15.80;;;154.20;2252.80;;;;;;4996211;28;20479;-82
2021/04/04 04:38:00;;;;;;;17.65;12.70;;;154.10;2252.80;;;;;;4996162;28;20022;-80
2021/04/04 04:40:28;;;;;;;17.90;12.82;;;153.80;2252.80;;;;;;4995823;28;20495;-80
2021/04/04 04:42:56;;;;;;;19.17;13.63;;;154.20;2252.80;;;;;;4996080;28;20093;-82
2021/04/04 04:45:30;;;;;;;23.92;15.90;;;154.20;2252.80;;;;;;4996511;28;20030;-80
2021/04/04 04:47:57;;;;;;;21.58;14.93;;;154.20;2252.80;;;;;;4995359;28;20449;-82
2021/04/04 04:50:24;;;;;;;20.02;13.23;;;154.30;2252.80;;;;;;4996041;28;20030;-81
2021/04/04 04:52:51;;;;;;;20.70;15.02;;;154.40;2252.80;;;;;;4995749;28;20040;-82
2021/04/04 04:55:24;;;;;;;22.88;16.70;;;154.20;2252.80;;;;;;4996023;28;20022;-82
2021/04/04 04:57:50;;;;;;;;;;;154.30;2252.80;;;;;;4996739;28;20056;-78
2021/04/04 05:00:19;;;;;;;22.00;15.52;;;154.20;2252.80;;;;;;5013295;28;20000;-80
2021/04/04 05:02:45;;;;;;;22.90;14.95;;;154.30;2252.80;;;;;;4995950;28;20100;-84
2021/04/04 05:05:13;;;;;;;17.38;12.82;;;154.40;2252.80;;;;;;4995933;28;20080;-84
2021/04/04 05:07:43;;;;;;;19.13;12.63;;;154.50;2252.80;;;;;;4995942;28;20026;-83
2021/04/04 05:10:11;;;;;;;17.30;12.63;;;154.40;2252.80;;;;;;4999820;28;20049;-82
2021/04/04 05:12:54;;;;;;;16.85;12.88;;;154.30;2252.80;;;;;;4998300;28;20034;-83
2021/04/04 05:15:24;;;;;;;24.08;18.50;;;154.40;2252.80;;;;;;4999468;28;20026;-84
2021/04/04 05:17:50;;;;;;;23.02;16.58;;;154.50;2252.80;;;;;;4999426;28;20375;-82
2021/04/04 05:20:19;;;;;;;28.55;20.50;;;154.40;2252.80;;;;;;4999555;28;20496;-82
2021/04/04 05:22:45;;;;;;;27.23;18.80;;;154.20;2252.80;;;;;;4999092;28;20030;-82
2021/04/04 05:25:12;;;;;;;22.48;16.15;;;154.20;2252.80;;;;;;4997035;28;20025;-80
2021/04/04 05:27:38;;;;;;;23.00;14.35;;;154.00;2252.80;;;;;;4998728;28;20116;-81
2021/04/04 05:30:10;;;;;;;19.52;15.15;;;154.00;2252.80;;;;;;4998398;28;20029;-79
2021/04/04 05:32:50;;;;;;;23.30;15.70;;;154.10;2252.80;;;;;;5016823;28;20381;-80
2021/04/04 05:35:21;;;;;;;20.52;15.32;;;154.30;2252.80;;;;;;4998955;28;20030;-83
2021/04/04 05:37:48;;;;;;;22.00;17.02;;;154.40;2252.80;;;;;;4999196;28;20023;-80
2021/04/04 05:40:25;;;;;;;25.73;19.33;;;154.40;2252.80;;;;;;4999273;28;20116;-83
2021/04/04 05:42:56;;;;;;;35.95;24.63;;;154.40;2252.80;;;;;;4998882;28;20079;-81
2021/04/04 05:45:25;;;;;;;36.50;25.75;;;154.30;2252.80;;;;;;4998682;28;20030;-80
2021/04/04 05:48:09;;;;;;;42.58;28.90;;;154.40;2252.80;;;;;;4999091;28;20382;-82
2021/04/04 05:51:00;;;;;;;53.33;36.45;;;154.50;2252.80;;;;;;4967855;28;20033;-81
2021/04/04 05:53:39;;;;;;;56.70;40.22;;;154.50;2252.80;;;;;;4998973;28;20133;-84
2021/04/04 05:56:27;;;;;;;45.30;30.23;;;154.50;2252.80;;;;;;4998723;28;20033;-83
2021/04/04 05:59:11;;;;;;;34.60;23.77;;;154.50;2252.80;;;;;;4998893;28;20025;-80
2021/04/04 06:02:05;;;;;;;33.90;24.90;;;179.20;2252.80;;;;;;4998753;28;20077;-80
2021/04/04 06:05:16;;;;;;;35.03;25.77;;;179.20;2252.80;;;;;;4998054;28;20481;-82
2021/04/04 06:08:19;;;;;;;37.85;26.33;;;154.50;2252.80;;;;;;4971762;28;20033;-81
2021/04/04 06:11:20;;;;;;;39.47;26.73;;;179.20;2252.80;;;;;;4998324;28;20477;-82
2021/04/04 06:14:07;;;;;;;43.85;28.15;;;179.30;2252.80;;;;;;5006122;28;20505;-83
2021/04/04 06:16:44;;;;;;;45.20;29.48;;;179.40;2252.80;;;;;;4998412;28;20041;-82
2021/04/04 06:19:52;;;;;;;42.65;29.05;;;179.30;2252.80;;;;;;4998218;28;20113;-80
2021/04/04 06:22:49;;;;;;;53.45;34.67;;;179.40;2252.80;;;;;;4970368;28;20034;-83
2021/04/04 06:25:45;;;;;;;53.75;37.15;;;179.40;2252.80;;;;;;5015542;28;20022;-84
2021/04/04 06:28:17;;;;;;;44.22;33.40;;;179.50;2252.80;;;;;;4998357;28;20025;-80
2021/04/04 06:30:58;;;;;;;37.70;28.52;;;179.50;2252.80;;;;;;4997888;28;20386;-80
2021/04/04 06:33:26;;;;;;;38.47;28.95;;;179.70;2252.80;;;;;;4998114;28;20026;-82
2021/04/04 06:36:31;;;;;;;39.20;27.70;;;179.80;2252.80;;;;;;4998064;28;20022;-81
2021/04/04 06:39:32;;;;;;;32.45;24.88;;;179.60;2252.80;;;;;;4997861;28;20433;-81
2021/04/04 06:42:24;;;;;;;32.15;24.15;;;179.50;2252.80;;;;;;4982625;28;20512;-81
2021/04/04 06:45:25;;;;;;;27.85;21.65;;;179.40;2252.80;;;;;;4997746;28;20073;-84
2021/04/04 06:48:25;;;;;;;30.45;21.13;;;179.50;2252.80;;;;;;4997785;28;20468;-82
2021/04/04 06:51:02;;;;;;;27.88;21.85;;;179.40;2252.80;;;;;;4997913;28;20363;-84
2021/04/04 06:54:02;;;;;;;29.85;19.10;;;179.40;2252.80;;;;;;4997608;28;20033;-81
2021/04/04 06:56:41;;;;;;;27.83;20.30;;;179.40;2252.80;;;;;;4984173;28;20022;-82
2021/04/04 06:59:42;;;;;;;19.85;15.90;;;179.50;2252.80;;;;;;5008022;28;20037;-83
2021/04/04 07:02:32;;;;;;;19.27;13.68;;;179.60;2252.80;;;;;;4997750;28;20038;-81
2021/04/04 07:05:16;;;;;;;18.30;13.27;;;179.70;2252.80;;;;;;4997843;28;20025;-85
2021/04/04 07:08:03;;;;;;;16.10;12.23;;;179.70;2252.80;;;;;;4997344;28;20072;-85
2021/04/04 07:11:08;;;;;;;30.27;23.48;;;179.60;2252.80;;;;;;4997498;28;20079;-83
2021/04/04 07:13:53;;;;;;;20.50;16.67;;;179.50;2252.80;;;;;;5014780;28;20029;-80
2021/04/04 07:17:15;;;;;;;22.13;15.57;;;179.70;2252.80;;;;;;4997154;28;20105;-84
2021/04/04 07:20:27;;;;;;;29.05;20.58;;;179.90;2252.80;;;;;;4981168;28;20025;-85
2021/04/04 07:23:34;;;;;;;21.45;16.52;;;179.90;2252.80;;;;;;4997195;28;20030;-81
2021/04/04 07:26:40;;;;;;;20.67;14.95;;;180.00;2252.80;;;;;;5014803;28;20469;-83
2021/04/04 07:29:38;;;;;;;30.25;21.92;;;180.00;2252.80;;;;;;5012585;28;20041;-85
2021/04/04 07:32:51;;;;;;;28.92;20.17;;;180.10;2252.80;;;;;;5014805;28;20030;-85
2021/04/04 07:35:32;;;;;;;26.45;17.35;;;204.80;2252.80;;;;;;4998700;28;20038;-85
2021/04/04 07:38:33;;;;;;;25.83;17.27;;;204.80;2252.80;;;;;;5010879;28;20092;-82
2021/04/04 07:41:57;;;;;;;23.65;18.27;;;204.90;2252.80;;;;;;4997783;28;20038;-85
2021/04/04 07:45:27;;;;;;;16.70;12.52;;;180.10;2252.80;;;;;;5007242;28;20485;-85
2021/04/04 07:48:19;;;;;;;20.30;15.20;;;179.80;2252.80;;;;;;4995748;28;20030;-85
2021/04/04 07:51:09;;;;;;;19.23;13.82;;;179.70;2252.80;;;;;;5014598;28;20413;-83
2021/04/04 07:54:02;;;;;;;24.75;20.13;;;179.60;2252.80;;;;;;4996713;28;20034;-83
2021/04/04 07:56:42;;;;;;;41.78;32.80;;;179.70;2252.80;;;;;;4996412;28;20547;-84
2021/04/04 07:59:41;;;;;;;16.65;13.48;;;179.80;2252.80;;;;;;4996661;28;20029;-80
2021/04/04 08:02:10;;;;;;;18.55;14.07;;;179.70;2252.80;;;;;;4996408;28;20026;-82
2021/04/04 08:04:57;;;;;;;24.35;19.35;;;179.70;2252.80;;;;;;4996566;28;20041;-83
2021/04/04 08:07:29;;;;;;;22.85;17.98;;;179.80;2252.80;;;;;;4996437;28;20026;-83
2021/04/04 08:10:44;;;;;;;15.95;13.15;;;179.90;2252.80;;;;;;5014009;28;20026;-82
2021/04/04 08:13:14;;;;;;;18.20;11.98;;;180.10;2252.80;;;;;;4996389;28;20026;-83
2021/04/04 08:15:46;;;;;;;20.05;14.40;;;180.10;2252.80;;;;;;4996753;28;20026;-83
2021/04/04 08:18:12;;;;;;;18.90;15.60;;;204.80;2252.80;;;;;;4996174;28;20042;-82
2021/04/04 08:20:41;;;;;;;17.50;13.93;;;204.80;2252.80;;;;;;4996270;28;20076;-85
2021/04/04 08:23:50;;;;;;;23.85;16.55;;;204.90;2252.80;;;;;;5007591;28;20084;-84
2021/04/04 08:26:27;;;;;;;19.90;14.23;;;204.80;2252.80;;;;;;4924703;28;20051;-84
2021/04/04 08:29:03;;;;;;;23.42;17.25;;;180.10;2252.80;;;;;;4975759;28;20031;-85
2021/04/04 08:31:31;;;;;;;29.13;20.17;;;205.00;2252.80;;;;;;4976547;28;20034;-84
2021/04/04 08:34:23;;;;;;;32.55;23.42;;;205.30;2252.80;;;;;;4993927;28;20113;-82
2021/04/04 08:36:59;;;;;;;22.13;17.45;;;205.40;2252.80;;;;;;4976672;28;20084;-82
2021/04/04 08:39:30;;;;;;;26.88;19.92;;;205.40;2252.80;;;;;;4961424;28;20034;-85
2021/04/04 08:42:00;;;;;;;25.33;18.73;;;205.60;2252.80;;;;;;4975839;28;20034;-80
2021/04/04 08:44:50;;;;;;;22.90;15.75;;;205.60;2252.80;;;;;;4980248;28;20030;-82
2021/04/04 08:47:43;;;;;;;27.67;20.08;;;205.60;2252.80;;;;;;4998051;28;20113;-86
2021/04/04 08:50:26;;;;;;;34.40;21.73;;;205.50;2252.80;;;;;;4964542;28;20034;-85
2021/04/04 08:53:22;;;;;;;27.63;20.00;;;205.50;2252.80;;;;;;4993700;28;20487;-81
2021/04/04 08:56:12;;;;;;;29.48;20.63;;;205.40;2252.80;;;;;;4997339;28;20033;-83
2021/04/04 08:58:45;;;;;;;29.20;18.83;;;205.30;2252.80;;;;;;4996299;28;20378;-82
2021/04/04 09:01:39;;;;;;;59.27;37.13;;;205.30;2252.80;;;;;;4981082;28;20053;-80
2021/04/04 09:04:10;;;;;;;111.75;65.57;;;205.40;2252.80;;;;;;4997709;28;20037;-82
2021/04/04 09:06:58;;;;;;;24.27;17.98;;;205.50;2252.80;;;;;;4980462;28;20035;-81
2021/04/04 09:09:44;;;;;;;24.60;18.20;;;205.30;2252.80;;;;;;4994399;28;20030;-84
2021/04/04 09:12:10;;;;;;;52.42;36.88;;;205.20;2252.80;;;;;;4993750;28;20034;-83
2021/04/04 09:14:42;;;;;;;67.65;45.78;;;205.30;2252.80;;;;;;4980040;28;20026;-81
2021/04/04 09:17:28;;;;;;;75.03;51.80;;;205.30;2252.80;;;;;;4995658;28;20050;-84
2021/04/04 09:20:00;;;;;;;58.38;42.30;;;205.20;2252.80;;;;;;4996330;28;20078;-82
2021/04/04 09:22:48;;;;;;;44.25;32.30;;;205.20;2252.80;;;;;;4997836;28;20109;-85
2021/04/04 09:25:16;;;;;;;36.47;30.88;;;205.20;2252.80;;;;;;4992920;28;20029;-83
2021/04/04 09:27:45;;;;;;;39.78;29.20;;;205.20;2252.80;;;;;;4999586;28;20101;-85
2021/04/04 09:30:33;;;;;;;33.97;24.40;;;205.20;2252.80;;;;;;4998907;28;20359;-85
2021/04/04 09:33:09;;;;;;;44.70;27.83;;;205.00;2252.80;;;;;;5015895;28;20380;-85
2021/04/04 09:35:39;;;;;;;36.63;24.70;;;204.90;2252.80;;;;;;4999120;28;20029;-83
2021/04/04 09:38:11;;;;;;;47.90;30.88;;;204.90;2252.80;;;;;;4997732;28;20029;-82
2021/04/04 09:40:40;;;;;;;42.07;27.83;;;204.90;2252.80;;;;;;4982149;28;20029;-82
2021/04/04 09:43:15;;;;;;;41.90;29.73;;;204.90;2252.80;;;;;;4997926;28;20038;-85
2021/04/04 09:46:01;;;;;;;64.97;51.25;;;204.90;2252.80;;;;;;4999123;28;20029;-84
2021/04/04 09:48:27;;;;;;;56.42;41.95;;;204.80;2252.80;;;;;;4998858;28;20036;-82
2021/04/04 09:51:12;;;;;;;42.13;31.83;;;204.90;2252.80;;;;;;4998667;28;20022;-79
2021/04/04 09:53:46;;;;;;;44.80;34.40;;;204.90;2252.80;;;;;;4998668;28;20030;-81
2021/04/04 09:56:27;;;;;;;45.33;36.35;;;205.00;2252.80;;;;;;4998048;28;20081;-81
2021/04/04 09:58:55;;;;;;;35.70;27.95;;;205.00;2252.80;;;;;;4998932;28;20026;-83
2021/04/04 10:01:26;;;;;;;27.55;21.48;;;205.00;2252.80;;;;;;5000590;28;20030;-77
2021/04/04 10:04:06;;;;;;;33.60;25.40;;;205.10;2252.80;;;;;;4998673;28;20034;-77
2021/04/04 10:06:33;;;;;;;34.28;25.33;;;205.10;2252.80;;;;;;4997721;28;20084;-78
2021/04/04 10:09:04;;;;;;;40.28;30.58;;;205.10;2252.80;;;;;;5001011;28;20026;-81
2021/04/04 10:11:31;;;;;;;30.58;23.23;;;205.10;2252.80;;;;;;4998020;28;20750;-80
2021/04/04 10:14:16;;;;;;;24.75;18.65;;;204.90;2252.80;;;;;;4997950;28;20034;-81
2021/04/04 10:16:42;;;;;;;32.45;24.90;;;180.10;2252.80;;;;;;4997983;28;20038;-80
2021/04/04 10:19:11;;;;;;;36.10;27.70;;;180.10;2252.80;;;;;;5000595;28;20025;-82
2021/04/04 10:21:41;;;;;;;38.53;30.38;;;180.10;2252.80;;;;;;4998742;28;20029;-82
2021/04/04 10:24:26;;;;;;;53.38;45.30;;;204.90;2252.80;;;;;;4998690;28;20036;-83
2021/04/04 10:27:24;;;;;;;42.85;32.65;;;205.00;2252.80;;;;;;4997741;28;20462;-79
2021/04/04 10:30:06;;;;;;;35.00;28.25;;;204.90;2252.80;;;;;;4997843;28;20050;-83
2021/04/04 10:32:32;;;;;;;59.55;44.03;;;180.10;2252.80;;;;;;4997659;28;20417;-84
2021/04/04 10:34:58;;;;;;;40.42;30.67;;;179.90;2252.80;;;;;;4998150;28;20030;-84
2021/04/04 10:37:28;;;;;;;52.55;44.90;;;179.90;2252.80;;;;;;4998118;28;20065;-80
2021/04/04 10:39:59;;;;;;;50.78;36.17;;;179.90;2252.80;;;;;;4997656;28;20033;-81
2021/04/04 10:42:27;;;;;;;70.63;46.97;;;179.90;2252.80;;;;;;4998950;28;20022;-83
2021/04/04 10:45:11;;;;;;;87.15;59.00;;;179.80;2252.80;;;;;;4998015;28;20034;-76
2021/04/04 10:47:38;;;;;;;109.25;72.90;;;179.80;2252.80;;;;;;4997669;28;20030;-75
2021/04/04 10:50:09;;;;;;;78.03;56.03;;;179.80;2252.80;;;;;;4997878;28;20029;-75
2021/04/04 10:52:35;;;;;;;102.38;68.07;;;179.90;2252.80;;;;;;4997740;28;20026;-74
2021/04/04 10:55:02;;;;;;;46.38;33.13;;;179.90;2252.80;;;;;;4997767;28;20030;-74
2021/04/04 10:57:31;;;;;;;43.45;30.33;;;179.90;2252.80;;;;;;5015477;28;20493;-75
2021/04/04 10:59:57;;;;;;;53.45;35.78;;;180.00;2252.80;;;;;;5015776;28;20025;-75
2021/04/04 11:02:24;;;;;;;51.75;37.50;;;180.00;2252.80;;;;;;4997543;28;20025;-74
2021/04/04 11:04:51;;;;;;;41.72;28.05;;;180.00;2252.80;;;;;;4996026;28;20030;-75
2021/04/04 11:07:19;;;;;;;60.45;42.08;;;180.00;2252.80;;;;;;4996868;28;20072;-75
2021/04/04 11:09:46;;;;;;;60.38;39.50;;;180.00;2252.80;;;;;;5014271;28;20034;-75
2021/04/04 11:12:12;;;;;;;50.47;37.75;;;179.90;2252.80;;;;;;4997375;28;20385;-75
2021/04/04 11:14:40;;;;;;;62.70;44.00;;;179.90;2252.80;;;;;;4996401;28;20034;-75
2021/04/04 11:17:07;;;;;;;70.88;55.38;;;180.00;2252.80;;;;;;4997393;28;20061;-75
2021/04/04 11:19:35;;;;;;;49.88;37.58;;;204.80;2252.80;;;;;;5013515;28;20022;-75
2021/04/04 11:22:03;;;;;;;48.55;35.55;;;180.00;2252.80;;;;;;4997254;28;20036;-74
2021/04/04 11:24:29;;;;;;;42.60;29.80;;;180.10;2252.80;;;;;;4996245;28;20037;-74
2021/04/04 11:27:02;;;;;;;27.85;22.15;;;204.80;2252.80;;;;;;5015097;28;20026;-74
2021/04/04 11:29:28;;;;;;;42.85;32.78;;;204.90;2252.80;;;;;;4994603;28;20025;-75
2021/04/04 11:32:14;;;;;;;30.23;23.58;;;204.90;2252.80;;;;;;4997223;28;20080;-79
2021/04/04 11:34:40;;;;;;;28.92;23.92;;;204.90;2252.80;;;;;;5013793;28;20106;-73
2021/04/04 11:37:12;;;;;;;38.13;31.38;;;204.90;2252.80;;;;;;4996976;28;20068;-75
2021/04/04 11:39:39;;;;;;;20.37;17.00;;;204.80;2252.80;;;;;;4997088;28;20034;-75
2021/04/04 11:42:06;;;;;;;22.67;18.83;;;204.80;2252.80;;;;;;4997151;28;20029;-74
2021/04/04 11:44:38;;;;;;;21.58;16.73;;;180.10;2252.80;;;;;;4996355;28;20045;-74
2021/04/04 11:47:16;;;;;;;27.00;24.20;;;204.90;2252.80;;;;;;5014880;28;20114;-76
2021/04/04 11:50:29;;;;;;;27.33;20.77;;;204.90;2252.80;;;;;;4997504;28;20373;-74
2021/04/04 11:52:54;;;;;;;21.80;16.50;;;180.10;2252.80;;;;;;4977844;28;20080;-74
2021/04/04 11:55:21;;;;;;;46.08;34.20;;;180.10;2252.80;;;;;;5013995;28;20057;-75
2021/04/04 11:57:48;;;;;;;77.47;47.47;;;180.10;2252.80;;;;;;4995394;28;20029;-74
2021/04/04 12:00:32;;;;;;;25.52;16.85;;;204.80;2252.80;;;;;;4996085;28;20026;-74
2021/04/04 12:03:02;;;;;;;22.48;16.48;;;179.90;2252.80;;;;;;4996529;28;20541;-74
2021/04/04 12:05:38;;;;;;;45.25;34.80;;;179.90;2252.80;;;;;;4995966;28;20057;-75
2021/04/04 12:08:05;;;;;;;58.55;42.53;;;179.90;2252.80;;;;;;5014055;28;20037;-75
2021/04/04 12:10:37;;;;;;;37.83;29.40;;;180.00;2252.80;;;;;;4995925;28;20057;-74
2021/04/04 12:13:12;;;;;;;22.88;18.23;;;180.10;2252.80;;;;;;4996285;28;20117;-74
2021/04/04 12:15:38;;;;;;;22.27;17.38;;;180.10;2252.80;;;;;;4995539;28;20053;-74
2021/04/04 12:18:04;;;;;;;34.30;25.05;;;204.80;2252.80;;;;;;4994663;28;20081;-84
2021/04/04 12:20:32;;;;;;;30.35;23.48;;;180.00;2252.80;;;;;;4994812;28;20498;-81
2021/04/04 12:22:59;;;;;;;35.40;28.17;;;204.80;2252.80;;;;;;4998630;28;20025;-77
2021/04/04 12:25:28;;;;;;;43.15;29.15;;;180.10;2252.80;;;;;;4992993;28;20024;-78
2021/04/04 12:27:57;;;;;;;30.77;21.83;;;204.80;2252.80;;;;;;4998418;28;20027;-76
2021/04/04 12:30:27;;;;;;;26.30;23.25;;;180.10;2252.80;;;;;;5003171;28;20109;-78
2021/04/04 12:33:17;;;;;;;23.58;20.13;;;179.90;2252.80;;;;;;4993901;28;20057;-79
2021/04/04 12:35:45;;;;;;;32.33;24.58;;;180.00;2252.80;;;;;;4996010;28;20052;-77
2021/04/04 12:38:30;;;;;;;31.50;23.92;;;179.90;2252.80;;;;;;4996085;28;20050;-79
2021/04/04 12:40:58;;;;;;;37.35;26.60;;;179.70;2252.80;;;;;;4996163;28;20221;-76
2021/04/04 12:43:24;;;;;;;32.65;24.13;;;179.80;2252.80;;;;;;4996073;28;20030;-80